sensor_id;sensor_type;location;lat;lon;timestamp;temperature;humidity
15959;DHT22;8078;47.822;9.402;2023-05-10T00:01:21;10.60;99.90
15959;DHT22;8078;47.822;9.402;2023-05-10T00:03:46;10.70;99.90
15959;DHT22;8078;47.822;9.402;2023-05-10T00:06:12;10.70;99.90
15959;DHT22;8078;47.822;9.402;2023-05-10T00:08:38;10.60;99.90
15959;DHT22;8078;47.822;9.402;2023-05-10T00:11:03;10.60;99.90
15959;DHT22;8078;47.822;9.402;2023-05-10T00:13:29;10.60;99.90
15959;DHT22;8078;47.822;9.402;2023-05-10T00:15:54;10.70;99.90
15959;DHT22;8078;47.822;9.402;2023-05-10T00:18:20;10.50;99.90
15959;DHT22;8078;47.822;9.402;2023-05-10T00:20:46;10.50;99.90
15959;DHT22;8078;47.822;9.402;2023-05-10T00:23:12;10.50;99.90
15959;DHT22;8078;47.822;9.402;2023-05-10T00:25:37;10.50;99.90
15959;DHT22;8078;47.822;9.402;2023-05-10T00:28:03;10.50;99.90
15959;DHT22;8078;47.822;9.402;2023-05-10T00:30:29;10.50;99.90
15959;DHT22;8078;47.822;9.402;2023-05-10T00:32:54;10.50;99.90
15959;DHT22;8078;47.822;9.402;2023-05-10T00:35:20;10.40;99.90
15959;DHT22;8078;47.822;9.402;2023-05-10T00:37:46;10.40;99.90
15959;DHT22;8078;47.822;9.402;2023-05-10T00:40:12;10.40;99.90
15959;DHT22;8078;47.822;9.402;2023-05-10T00:42:38;10.40;99.90
15959;DHT22;8078;47.822;9.402;2023-05-10T00:45:04;10.30;99.90
15959;DHT22;8078;47.822;9.402;2023-05-10T00:47:29;10.30;99.90
15959;DHT22;8078;47.822;9.402;2023-05-10T00:49:55;10.30;99.90
15959;DHT22;8078;47.822;9.402;2023-05-10T00:52:21;10.30;99.90
15959;DHT22;8078;47.822;9.402;2023-05-10T00:54:50;10.20;99.90
15959;DHT22;8078;47.822;9.402;2023-05-10T00:57:16;10.20;99.90
15959;DHT22;8078;47.822;9.402;2023-05-10T00:59:42;10.20;99.90
15959;DHT22;8078;47.822;9.402;2023-05-10T01:02:07;10.20;99.90
15959;DHT22;8078;47.822;9.402;2023-05-10T01:04:33;10.20;99.90
15959;DHT22;8078;47.822;9.402;2023-05-10T01:06:59;10.20;99.90
15959;DHT22;8078;47.822;9.402;2023-05-10T01:09:25;10.20;99.90
15959;DHT22;8078;47.822;9.402;2023-05-10T01:11:51;10.20;99.90
15959;DHT22;8078;47.822;9.402;2023-05-10T01:14:18;10.20;99.90
15959;DHT22;8078;47.822;9.402;2023-05-10T01:16:45;10.20;99.90
15959;DHT22;8078;47.822;9.402;2023-05-10T01:19:29;10.20;99.90
15959;DHT22;8078;47.822;9.402;2023-05-10T01:22:05;10.20;99.90
15959;DHT22;8078;47.822;9.402;2023-05-10T01:33:33;10.20;99.90
15959;DHT22;8078;47.822;9.402;2023-05-10T01:39:17;10.20;99.90
15959;DHT22;8078;47.822;9.402;2023-05-10T01:41:54;10.10;99.90
15959;DHT22;8078;47.822;9.402;2023-05-10T01:44:35;10.10;99.90
15959;DHT22;8078;47.822;9.402;2023-05-10T01:47:10;10.10;99.90
15959;DHT22;8078;47.822;9.402;2023-05-10T01:49:43;10.10;99.90
15959;DHT22;8078;47.822;9.402;2023-05-10T01:52:12;10.10;99.90
15959;DHT22;8078;47.822;9.402;2023-05-10T01:54:42;10.10;99.90
15959;DHT22;8078;47.822;9.402;2023-05-10T01:57:11;10.20;99.90
15959;DHT22;8078;47.822;9.402;2023-05-10T01:59:40;10.10;99.90
15959;DHT22;8078;47.822;9.402;2023-05-10T02:02:08;10.10;99.90
15959;DHT22;8078;47.822;9.402;2023-05-10T02:04:38;10.10;99.90
15959;DHT22;8078;47.822;9.402;2023-05-10T02:07:06;10.10;99.90
15959;DHT22;8078;47.822;9.402;2023-05-10T02:09:33;10.10;99.90
15959;DHT22;8078;47.822;9.402;2023-05-10T02:12:01;10.10;99.90
15959;DHT22;8078;47.822;9.402;2023-05-10T02:14:30;10.10;99.90
15959;DHT22;8078;47.822;9.402;2023-05-10T02:16:56;10.00;99.90
15959;DHT22;8078;47.822;9.402;2023-05-10T02:19:24;10.00;99.90
15959;DHT22;8078;47.822;9.402;2023-05-10T02:21:50;10.10;99.90
15959;DHT22;8078;47.822;9.402;2023-05-10T02:24:17;10.10;99.90
15959;DHT22;8078;47.822;9.402;2023-05-10T02:26:44;10.00;99.90
15959;DHT22;8078;47.822;9.402;2023-05-10T02:29:11;10.00;99.90
15959;DHT22;8078;47.822;9.402;2023-05-10T02:31:38;10.00;99.90
15959;DHT22;8078;47.822;9.402;2023-05-10T02:34:04;10.00;99.90
15959;DHT22;8078;47.822;9.402;2023-05-10T02:36:31;10.00;99.90
15959;DHT22;8078;47.822;9.402;2023-05-10T02:38:57;10.00;99.90
15959;DHT22;8078;47.822;9.402;2023-05-10T02:41:25;10.00;99.90
15959;DHT22;8078;47.822;9.402;2023-05-10T02:43:55;10.00;99.90
15959;DHT22;8078;47.822;9.402;2023-05-10T02:46:21;9.90;99.90
15959;DHT22;8078;47.822;9.402;2023-05-10T02:48:47;9.90;99.90
15959;DHT22;8078;47.822;9.402;2023-05-10T02:51:13;9.90;99.90
15959;DHT22;8078;47.822;9.402;2023-05-10T02:53:44;9.90;99.90
15959;DHT22;8078;47.822;9.402;2023-05-10T02:56:25;9.90;99.90
15959;DHT22;8078;47.822;9.402;2023-05-10T02:58:51;9.90;99.90
15959;DHT22;8078;47.822;9.402;2023-05-10T03:01:17;9.90;99.90
15959;DHT22;8078;47.822;9.402;2023-05-10T03:03:42;9.90;99.90
15959;DHT22;8078;47.822;9.402;2023-05-10T03:06:08;9.90;99.90
15959;DHT22;8078;47.822;9.402;2023-05-10T03:08:33;9.80;99.90
15959;DHT22;8078;47.822;9.402;2023-05-10T03:13:54;9.80;99.90
15959;DHT22;8078;47.822;9.402;2023-05-10T03:16:33;9.70;99.90
15959;DHT22;8078;47.822;9.402;2023-05-10T03:21:41;9.80;99.90
15959;DHT22;8078;47.822;9.402;2023-05-10T03:24:09;9.80;99.90
15959;DHT22;8078;47.822;9.402;2023-05-10T03:26:38;9.80;99.90
15959;DHT22;8078;47.822;9.402;2023-05-10T03:29:06;9.80;99.90
15959;DHT22;8078;47.822;9.402;2023-05-10T03:31:32;9.80;99.90
15959;DHT22;8078;47.822;9.402;2023-05-10T03:33:58;9.70;99.90
15959;DHT22;8078;47.822;9.402;2023-05-10T03:36:24;9.80;99.90
15959;DHT22;8078;47.822;9.402;2023-05-10T03:38:51;9.80;99.90
15959;DHT22;8078;47.822;9.402;2023-05-10T03:41:17;9.80;99.90
15959;DHT22;8078;47.822;9.402;2023-05-10T03:43:43;9.80;99.90
15959;DHT22;8078;47.822;9.402;2023-05-10T03:46:08;9.80;99.90
15959;DHT22;8078;47.822;9.402;2023-05-10T03:48:34;9.80;99.90
15959;DHT22;8078;47.822;9.402;2023-05-10T03:51:00;9.70;99.90
15959;DHT22;8078;47.822;9.402;2023-05-10T03:53:25;9.70;99.90
15959;DHT22;8078;47.822;9.402;2023-05-10T03:55:52;9.80;99.90
15959;DHT22;8078;47.822;9.402;2023-05-10T03:58:17;9.70;99.90
15959;DHT22;8078;47.822;9.402;2023-05-10T04:00:43;9.60;99.90
15959;DHT22;8078;47.822;9.402;2023-05-10T04:03:11;9.70;99.90
15959;DHT22;8078;47.822;9.402;2023-05-10T04:05:37;9.70;99.90
15959;DHT22;8078;47.822;9.402;2023-05-10T04:08:03;9.70;99.90
15959;DHT22;8078;47.822;9.402;2023-05-10T04:10:29;9.70;99.90
15959;DHT22;8078;47.822;9.402;2023-05-10T04:12:54;9.60;99.90
15959;DHT22;8078;47.822;9.402;2023-05-10T04:15:20;9.70;99.90
15959;DHT22;8078;47.822;9.402;2023-05-10T04:17:46;9.60;99.90
15959;DHT22;8078;47.822;9.402;2023-05-10T04:20:12;9.60;99.90
15959;DHT22;8078;47.822;9.402;2023-05-10T04:22:37;9.70;99.90
15959;DHT22;8078;47.822;9.402;2023-05-10T04:25:04;9.60;99.90
15959;DHT22;8078;47.822;9.402;2023-05-10T04:27:30;9.60;99.90
15959;DHT22;8078;47.822;9.402;2023-05-10T04:29:56;9.60;99.90
15959;DHT22;8078;47.822;9.402;2023-05-10T04:32:22;9.60;99.90
15959;DHT22;8078;47.822;9.402;2023-05-10T04:34:47;9.60;99.90
15959;DHT22;8078;47.822;9.402;2023-05-10T04:37:13;9.60;99.90
15959;DHT22;8078;47.822;9.402;2023-05-10T04:39:38;9.60;99.90
15959;DHT22;8078;47.822;9.402;2023-05-10T04:42:04;9.60;99.90
15959;DHT22;8078;47.822;9.402;2023-05-10T04:44:31;9.50;99.90
15959;DHT22;8078;47.822;9.402;2023-05-10T04:46:57;9.60;99.90
15959;DHT22;8078;47.822;9.402;2023-05-10T04:49:22;9.50;99.90
15959;DHT22;8078;47.822;9.402;2023-05-10T04:51:48;9.50;99.90
15959;DHT22;8078;47.822;9.402;2023-05-10T04:54:13;9.60;99.90
15959;DHT22;8078;47.822;9.402;2023-05-10T04:56:39;9.60;99.90
15959;DHT22;8078;47.822;9.402;2023-05-10T04:59:06;9.60;99.90
15959;DHT22;8078;47.822;9.402;2023-05-10T05:01:31;9.50;99.90
15959;DHT22;8078;47.822;9.402;2023-05-10T05:03:57;9.60;99.90
15959;DHT22;8078;47.822;9.402;2023-05-10T05:06:23;9.60;99.90
15959;DHT22;8078;47.822;9.402;2023-05-10T05:08:50;9.60;99.90
15959;DHT22;8078;47.822;9.402;2023-05-10T05:11:16;9.60;99.90
15959;DHT22;8078;47.822;9.402;2023-05-10T05:13:41;9.60;99.90
15959;DHT22;8078;47.822;9.402;2023-05-10T05:16:07;9.60;99.90
15959;DHT22;8078;47.822;9.402;2023-05-10T05:18:32;9.60;99.90
15959;DHT22;8078;47.822;9.402;2023-05-10T05:20:58;9.70;99.90
15959;DHT22;8078;47.822;9.402;2023-05-10T05:23:24;9.60;99.90
15959;DHT22;8078;47.822;9.402;2023-05-10T05:25:51;9.60;99.90
15959;DHT22;8078;47.822;9.402;2023-05-10T05:28:17;9.60;99.90
15959;DHT22;8078;47.822;9.402;2023-05-10T05:30:43;9.60;99.90
15959;DHT22;8078;47.822;9.402;2023-05-10T05:33:08;9.60;99.90
15959;DHT22;8078;47.822;9.402;2023-05-10T05:35:34;9.60;99.90
15959;DHT22;8078;47.822;9.402;2023-05-10T05:38:00;9.60;99.90
15959;DHT22;8078;47.822;9.402;2023-05-10T05:40:25;9.60;99.90
15959;DHT22;8078;47.822;9.402;2023-05-10T05:42:51;9.70;99.90
15959;DHT22;8078;47.822;9.402;2023-05-10T05:45:16;9.70;99.90
15959;DHT22;8078;47.822;9.402;2023-05-10T05:47:42;9.60;99.90
15959;DHT22;8078;47.822;9.402;2023-05-10T05:50:08;9.60;99.90
15959;DHT22;8078;47.822;9.402;2023-05-10T05:52:33;9.60;99.90
15959;DHT22;8078;47.822;9.402;2023-05-10T05:54:59;9.60;99.90
15959;DHT22;8078;47.822;9.402;2023-05-10T05:57:25;9.60;99.90
15959;DHT22;8078;47.822;9.402;2023-05-10T05:59:51;9.60;99.90
15959;DHT22;8078;47.822;9.402;2023-05-10T06:02:17;9.70;99.90
15959;DHT22;8078;47.822;9.402;2023-05-10T06:04:43;9.70;99.90
15959;DHT22;8078;47.822;9.402;2023-05-10T06:07:08;9.70;99.90
15959;DHT22;8078;47.822;9.402;2023-05-10T06:09:34;9.60;99.90
15959;DHT22;8078;47.822;9.402;2023-05-10T06:11:59;9.60;99.90
15959;DHT22;8078;47.822;9.402;2023-05-10T06:14:25;9.80;99.90
15959;DHT22;8078;47.822;9.402;2023-05-10T06:16:50;9.70;99.90
15959;DHT22;8078;47.822;9.402;2023-05-10T06:19:16;9.70;99.90
15959;DHT22;8078;47.822;9.402;2023-05-10T06:21:41;9.70;99.90
15959;DHT22;8078;47.822;9.402;2023-05-10T06:24:07;9.70;99.90
15959;DHT22;8078;47.822;9.402;2023-05-10T06:26:33;9.80;99.90
15959;DHT22;8078;47.822;9.402;2023-05-10T06:28:59;9.70;99.90
15959;DHT22;8078;47.822;9.402;2023-05-10T06:31:24;9.70;99.90
15959;DHT22;8078;47.822;9.402;2023-05-10T06:33:50;9.80;99.90
15959;DHT22;8078;47.822;9.402;2023-05-10T06:36:16;9.70;99.90
15959;DHT22;8078;47.822;9.402;2023-05-10T06:38:41;9.70;99.90
15959;DHT22;8078;47.822;9.402;2023-05-10T06:41:07;9.60;99.90
15959;DHT22;8078;47.822;9.402;2023-05-10T06:43:32;9.60;99.90
15959;DHT22;8078;47.822;9.402;2023-05-10T06:45:58;9.60;99.90
15959;DHT22;8078;47.822;9.402;2023-05-10T06:48:23;9.60;99.90
15959;DHT22;8078;47.822;9.402;2023-05-10T06:50:49;9.60;99.90
15959;DHT22;8078;47.822;9.402;2023-05-10T06:53:14;9.60;99.90
15959;DHT22;8078;47.822;9.402;2023-05-10T06:55:40;9.60;99.90
15959;DHT22;8078;47.822;9.402;2023-05-10T06:58:06;9.60;99.90
15959;DHT22;8078;47.822;9.402;2023-05-10T07:00:32;9.60;99.90
15959;DHT22;8078;47.822;9.402;2023-05-10T07:02:57;9.60;99.90
15959;DHT22;8078;47.822;9.402;2023-05-10T07:05:23;9.60;99.90
15959;DHT22;8078;47.822;9.402;2023-05-10T07:07:49;9.60;99.90
15959;DHT22;8078;47.822;9.402;2023-05-10T07:10:15;9.60;99.90
15959;DHT22;8078;47.822;9.402;2023-05-10T07:12:40;9.60;99.90
15959;DHT22;8078;47.822;9.402;2023-05-10T07:15:06;9.60;99.90
15959;DHT22;8078;47.822;9.402;2023-05-10T07:17:32;9.70;99.90
15959;DHT22;8078;47.822;9.402;2023-05-10T07:19:59;9.60;99.90
15959;DHT22;8078;47.822;9.402;2023-05-10T07:22:25;9.70;99.90
15959;DHT22;8078;47.822;9.402;2023-05-10T07:24:51;9.70;99.90
15959;DHT22;8078;47.822;9.402;2023-05-10T07:27:16;9.60;99.90
15959;DHT22;8078;47.822;9.402;2023-05-10T07:29:42;9.70;99.90
15959;DHT22;8078;47.822;9.402;2023-05-10T07:32:07;9.70;99.90
15959;DHT22;8078;47.822;9.402;2023-05-10T07:34:33;9.70;99.90
15959;DHT22;8078;47.822;9.402;2023-05-10T07:36:59;9.60;99.90
15959;DHT22;8078;47.822;9.402;2023-05-10T07:39:25;9.60;99.90
15959;DHT22;8078;47.822;9.402;2023-05-10T07:41:51;9.60;99.90
15959;DHT22;8078;47.822;9.402;2023-05-10T07:44:16;9.60;99.90
15959;DHT22;8078;47.822;9.402;2023-05-10T07:46:44;9.60;99.90
15959;DHT22;8078;47.822;9.402;2023-05-10T07:49:09;9.60;99.90
15959;DHT22;8078;47.822;9.402;2023-05-10T07:51:35;9.60;99.90
15959;DHT22;8078;47.822;9.402;2023-05-10T07:54:01;9.50;99.90
15959;DHT22;8078;47.822;9.402;2023-05-10T07:56:29;9.60;99.90
15959;DHT22;8078;47.822;9.402;2023-05-10T07:58:59;9.60;99.90
15959;DHT22;8078;47.822;9.402;2023-05-10T08:01:26;9.60;99.90
15959;DHT22;8078;47.822;9.402;2023-05-10T08:03:53;9.70;99.90
15959;DHT22;8078;47.822;9.402;2023-05-10T08:06:20;9.80;99.90
15959;DHT22;8078;47.822;9.402;2023-05-10T08:08:46;9.80;99.90
15959;DHT22;8078;47.822;9.402;2023-05-10T08:11:18;9.80;99.90
15959;DHT22;8078;47.822;9.402;2023-05-10T08:13:44;9.90;99.90
15959;DHT22;8078;47.822;9.402;2023-05-10T08:16:10;9.90;99.90
15959;DHT22;8078;47.822;9.402;2023-05-10T08:18:36;10.00;99.90
15959;DHT22;8078;47.822;9.402;2023-05-10T08:21:02;10.10;99.90
15959;DHT22;8078;47.822;9.402;2023-05-10T08:23:28;10.10;99.90
15959;DHT22;8078;47.822;9.402;2023-05-10T08:25:53;10.00;99.90
15959;DHT22;8078;47.822;9.402;2023-05-10T08:28:19;10.10;99.90
15959;DHT22;8078;47.822;9.402;2023-05-10T08:30:44;10.10;99.90
15959;DHT22;8078;47.822;9.402;2023-05-10T08:33:10;10.10;99.90
15959;DHT22;8078;47.822;9.402;2023-05-10T08:35:35;10.20;99.90
15959;DHT22;8078;47.822;9.402;2023-05-10T08:38:01;10.20;99.90
15959;DHT22;8078;47.822;9.402;2023-05-10T08:40:27;10.20;99.90
15959;DHT22;8078;47.822;9.402;2023-05-10T08:43:00;10.00;99.90
15959;DHT22;8078;47.822;9.402;2023-05-10T08:45:32;9.90;99.90
15959;DHT22;8078;47.822;9.402;2023-05-10T08:48:01;9.90;99.90
15959;DHT22;8078;47.822;9.402;2023-05-10T08:50:27;9.80;99.90
15959;DHT22;8078;47.822;9.402;2023-05-10T08:52:55;9.90;99.90
15959;DHT22;8078;47.822;9.402;2023-05-10T08:55:23;10.00;99.90
15959;DHT22;8078;47.822;9.402;2023-05-10T08:57:49;10.00;99.90
15959;DHT22;8078;47.822;9.402;2023-05-10T09:00:16;10.20;99.90
15959;DHT22;8078;47.822;9.402;2023-05-10T09:02:43;10.40;99.90
15959;DHT22;8078;47.822;9.402;2023-05-10T09:05:09;10.40;99.90
15959;DHT22;8078;47.822;9.402;2023-05-10T09:07:35;10.40;99.90
15959;DHT22;8078;47.822;9.402;2023-05-10T09:10:02;10.70;99.90
15959;DHT22;8078;47.822;9.402;2023-05-10T09:12:28;10.60;99.90
15959;DHT22;8078;47.822;9.402;2023-05-10T09:14:54;10.80;99.90
15959;DHT22;8078;47.822;9.402;2023-05-10T09:17:22;10.80;99.90
15959;DHT22;8078;47.822;9.402;2023-05-10T09:19:48;10.70;99.90
15959;DHT22;8078;47.822;9.402;2023-05-10T09:22:14;10.60;99.90
15959;DHT22;8078;47.822;9.402;2023-05-10T09:24:39;10.40;99.90
15959;DHT22;8078;47.822;9.402;2023-05-10T09:27:10;10.30;99.90
15959;DHT22;8078;47.822;9.402;2023-05-10T09:29:40;10.30;99.90
15959;DHT22;8078;47.822;9.402;2023-05-10T09:32:05;10.00;99.90
15959;DHT22;8078;47.822;9.402;2023-05-10T09:34:32;9.90;99.90
15959;DHT22;8078;47.822;9.402;2023-05-10T09:37:01;10.10;99.90
15959;DHT22;8078;47.822;9.402;2023-05-10T09:39:37;10.20;99.90
15959;DHT22;8078;47.822;9.402;2023-05-10T09:42:05;10.40;99.90
15959;DHT22;8078;47.822;9.402;2023-05-10T09:44:34;10.40;99.90
15959;DHT22;8078;47.822;9.402;2023-05-10T09:47:01;10.70;99.90
15959;DHT22;8078;47.822;9.402;2023-05-10T09:49:27;10.70;99.90
15959;DHT22;8078;47.822;9.402;2023-05-10T09:52:06;10.80;99.90
15959;DHT22;8078;47.822;9.402;2023-05-10T09:54:33;10.60;99.90
15959;DHT22;8078;47.822;9.402;2023-05-10T09:56:59;10.50;99.90
15959;DHT22;8078;47.822;9.402;2023-05-10T09:59:26;10.50;99.90
15959;DHT22;8078;47.822;9.402;2023-05-10T10:01:55;10.50;99.90
15959;DHT22;8078;47.822;9.402;2023-05-10T10:04:21;10.70;99.90
15959;DHT22;8078;47.822;9.402;2023-05-10T10:06:47;10.50;99.90
15959;DHT22;8078;47.822;9.402;2023-05-10T10:09:23;10.40;99.90
15959;DHT22;8078;47.822;9.402;2023-05-10T10:11:49;10.50;99.90
15959;DHT22;8078;47.822;9.402;2023-05-10T10:14:18;10.50;99.90
15959;DHT22;8078;47.822;9.402;2023-05-10T10:16:44;10.60;99.90
15959;DHT22;8078;47.822;9.402;2023-05-10T10:19:10;10.70;99.90
15959;DHT22;8078;47.822;9.402;2023-05-10T10:21:35;10.80;99.90
15959;DHT22;8078;47.822;9.402;2023-05-10T10:24:01;11.00;99.90
15959;DHT22;8078;47.822;9.402;2023-05-10T10:26:27;10.90;99.90
15959;DHT22;8078;47.822;9.402;2023-05-10T10:31:41;10.80;99.90
15959;DHT22;8078;47.822;9.402;2023-05-10T10:34:21;10.90;99.90
15959;DHT22;8078;47.822;9.402;2023-05-10T10:36:50;11.20;99.90
15959;DHT22;8078;47.822;9.402;2023-05-10T10:39:16;11.10;99.90
15959;DHT22;8078;47.822;9.402;2023-05-10T10:41:55;11.10;99.90
15959;DHT22;8078;47.822;9.402;2023-05-10T10:49:28;11.00;99.90
15959;DHT22;8078;47.822;9.402;2023-05-10T10:57:28;10.40;99.90
15959;DHT22;8078;47.822;9.402;2023-05-10T11:00:30;10.20;99.90
15959;DHT22;8078;47.822;9.402;2023-05-10T11:03:11;10.10;99.90
15959;DHT22;8078;47.822;9.402;2023-05-10T11:05:48;10.00;99.90
15959;DHT22;8078;47.822;9.402;2023-05-10T11:08:27;9.70;99.90
15959;DHT22;8078;47.822;9.402;2023-05-10T11:11:01;9.80;99.90
15959;DHT22;8078;47.822;9.402;2023-05-10T11:13:33;9.80;99.90
15959;DHT22;8078;47.822;9.402;2023-05-10T11:16:10;9.90;99.90
15959;DHT22;8078;47.822;9.402;2023-05-10T11:18:36;10.00;99.90
15959;DHT22;8078;47.822;9.402;2023-05-10T11:21:03;10.10;99.90
15959;DHT22;8078;47.822;9.402;2023-05-10T11:23:49;10.10;99.90
15959;DHT22;8078;47.822;9.402;2023-05-10T11:26:15;10.20;99.90
15959;DHT22;8078;47.822;9.402;2023-05-10T11:28:45;10.20;99.90
15959;DHT22;8078;47.822;9.402;2023-05-10T11:31:16;10.40;99.90
15959;DHT22;8078;47.822;9.402;2023-05-10T11:33:44;10.60;99.90
15959;DHT22;8078;47.822;9.402;2023-05-10T11:36:20;11.00;99.90
15959;DHT22;8078;47.822;9.402;2023-05-10T11:38:47;11.10;99.90
15959;DHT22;8078;47.822;9.402;2023-05-10T11:41:15;11.20;99.90
15959;DHT22;8078;47.822;9.402;2023-05-10T11:43:41;11.60;99.90
15959;DHT22;8078;47.822;9.402;2023-05-10T11:46:09;11.90;99.90
15959;DHT22;8078;47.822;9.402;2023-05-10T11:48:36;11.80;99.90
15959;DHT22;8078;47.822;9.402;2023-05-10T11:51:02;12.20;99.90
15959;DHT22;8078;47.822;9.402;2023-05-10T11:53:31;12.10;99.90
15959;DHT22;8078;47.822;9.402;2023-05-10T11:56:05;12.20;99.90
15959;DHT22;8078;47.822;9.402;2023-05-10T11:58:32;12.00;99.90
15959;DHT22;8078;47.822;9.402;2023-05-10T12:00:59;11.90;99.90
15959;DHT22;8078;47.822;9.402;2023-05-10T12:03:25;11.60;99.90
15959;DHT22;8078;47.822;9.402;2023-05-10T12:05:50;11.40;99.90
15959;DHT22;8078;47.822;9.402;2023-05-10T12:08:21;11.40;99.90
15959;DHT22;8078;47.822;9.402;2023-05-10T12:10:47;11.50;99.90
15959;DHT22;8078;47.822;9.402;2023-05-10T12:13:14;11.70;99.90
15959;DHT22;8078;47.822;9.402;2023-05-10T12:15:41;11.50;99.90
15959;DHT22;8078;47.822;9.402;2023-05-10T12:18:09;11.60;99.90
15959;DHT22;8078;47.822;9.402;2023-05-10T12:20:35;11.50;99.90
15959;DHT22;8078;47.822;9.402;2023-05-10T12:23:02;11.50;99.90
15959;DHT22;8078;47.822;9.402;2023-05-10T12:25:33;11.30;99.90
15959;DHT22;8078;47.822;9.402;2023-05-10T12:28:03;11.30;99.90
15959;DHT22;8078;47.822;9.402;2023-05-10T12:30:30;11.40;99.90
15959;DHT22;8078;47.822;9.402;2023-05-10T12:33:07;11.60;99.90
15959;DHT22;8078;47.822;9.402;2023-05-10T12:35:52;11.70;99.90
15959;DHT22;8078;47.822;9.402;2023-05-10T12:38:32;11.80;99.90
15959;DHT22;8078;47.822;9.402;2023-05-10T12:41:03;12.00;99.90
15959;DHT22;8078;47.822;9.402;2023-05-10T12:43:29;11.80;99.90
15959;DHT22;8078;47.822;9.402;2023-05-10T12:45:55;11.70;99.90
15959;DHT22;8078;47.822;9.402;2023-05-10T12:48:20;11.90;99.90
15959;DHT22;8078;47.822;9.402;2023-05-10T12:50:46;11.90;99.90
15959;DHT22;8078;47.822;9.402;2023-05-10T12:53:13;12.10;99.90
15959;DHT22;8078;47.822;9.402;2023-05-10T12:55:41;12.00;99.90
15959;DHT22;8078;47.822;9.402;2023-05-10T12:58:06;12.10;99.90
15959;DHT22;8078;47.822;9.402;2023-05-10T13:00:32;12.00;99.90
15959;DHT22;8078;47.822;9.402;2023-05-10T13:02:57;12.10;99.90
15959;DHT22;8078;47.822;9.402;2023-05-10T13:05:23;11.90;99.90
15959;DHT22;8078;47.822;9.402;2023-05-10T13:07:48;11.90;99.90
15959;DHT22;8078;47.822;9.402;2023-05-10T13:10:14;12.00;99.90
15959;DHT22;8078;47.822;9.402;2023-05-10T13:12:40;12.10;99.90
15959;DHT22;8078;47.822;9.402;2023-05-10T13:15:06;12.10;99.90
15959;DHT22;8078;47.822;9.402;2023-05-10T13:17:32;11.90;99.90
15959;DHT22;8078;47.822;9.402;2023-05-10T13:19:57;12.10;99.90
15959;DHT22;8078;47.822;9.402;2023-05-10T13:22:23;12.40;99.90
15959;DHT22;8078;47.822;9.402;2023-05-10T13:24:48;12.50;99.90
15959;DHT22;8078;47.822;9.402;2023-05-10T13:27:14;12.60;99.90
15959;DHT22;8078;47.822;9.402;2023-05-10T13:29:39;12.30;99.90
15959;DHT22;8078;47.822;9.402;2023-05-10T13:32:05;12.40;99.90
15959;DHT22;8078;47.822;9.402;2023-05-10T13:34:31;12.50;99.90
15959;DHT22;8078;47.822;9.402;2023-05-10T13:36:57;12.50;99.90
15959;DHT22;8078;47.822;9.402;2023-05-10T13:39:23;12.60;99.90
15959;DHT22;8078;47.822;9.402;2023-05-10T13:41:48;12.50;99.90
15959;DHT22;8078;47.822;9.402;2023-05-10T13:44:14;12.60;99.90
15959;DHT22;8078;47.822;9.402;2023-05-10T13:46:41;12.70;99.90
15959;DHT22;8078;47.822;9.402;2023-05-10T13:49:09;12.80;99.90
15959;DHT22;8078;47.822;9.402;2023-05-10T13:51:34;12.80;99.90
15959;DHT22;8078;47.822;9.402;2023-05-10T13:54:04;12.70;99.90
15959;DHT22;8078;47.822;9.402;2023-05-10T13:56:29;12.80;99.90
15959;DHT22;8078;47.822;9.402;2023-05-10T13:58:56;12.80;99.90
15959;DHT22;8078;47.822;9.402;2023-05-10T14:01:23;12.70;99.90
15959;DHT22;8078;47.822;9.402;2023-05-10T14:03:49;12.60;99.90
15959;DHT22;8078;47.822;9.402;2023-05-10T14:06:14;12.60;99.90
15959;DHT22;8078;47.822;9.402;2023-05-10T14:08:40;12.50;99.90
15959;DHT22;8078;47.822;9.402;2023-05-10T14:11:06;12.40;99.90
15959;DHT22;8078;47.822;9.402;2023-05-10T14:13:31;12.30;99.90
15959;DHT22;8078;47.822;9.402;2023-05-10T14:15:57;12.40;99.90
15959;DHT22;8078;47.822;9.402;2023-05-10T14:18:24;12.40;99.90
15959;DHT22;8078;47.822;9.402;2023-05-10T14:20:49;12.60;99.90
15959;DHT22;8078;47.822;9.402;2023-05-10T14:23:15;12.60;99.90
15959;DHT22;8078;47.822;9.402;2023-05-10T14:25:41;12.70;99.90
15959;DHT22;8078;47.822;9.402;2023-05-10T14:28:06;12.80;99.90
15959;DHT22;8078;47.822;9.402;2023-05-10T14:30:32;12.70;99.90
15959;DHT22;8078;47.822;9.402;2023-05-10T14:32:59;12.60;99.90
15959;DHT22;8078;47.822;9.402;2023-05-10T14:35:26;12.60;99.90
15959;DHT22;8078;47.822;9.402;2023-05-10T14:37:52;12.70;99.90
15959;DHT22;8078;47.822;9.402;2023-05-10T14:40:18;12.60;99.90
15959;DHT22;8078;47.822;9.402;2023-05-10T14:42:44;12.40;99.90
15959;DHT22;8078;47.822;9.402;2023-05-10T14:45:10;12.30;99.90
15959;DHT22;8078;47.822;9.402;2023-05-10T14:47:36;12.20;99.90
15959;DHT22;8078;47.822;9.402;2023-05-10T14:50:01;12.20;99.90
15959;DHT22;8078;47.822;9.402;2023-05-10T14:52:27;12.40;99.90
15959;DHT22;8078;47.822;9.402;2023-05-10T14:54:53;12.40;99.90
15959;DHT22;8078;47.822;9.402;2023-05-10T14:57:19;12.40;99.90
15959;DHT22;8078;47.822;9.402;2023-05-10T14:59:44;12.50;99.90
15959;DHT22;8078;47.822;9.402;2023-05-10T15:02:10;12.50;99.90
15959;DHT22;8078;47.822;9.402;2023-05-10T15:04:36;12.40;99.90
15959;DHT22;8078;47.822;9.402;2023-05-10T15:07:02;12.40;99.90
15959;DHT22;8078;47.822;9.402;2023-05-10T15:09:28;12.30;99.90
15959;DHT22;8078;47.822;9.402;2023-05-10T15:11:54;12.20;99.90
15959;DHT22;8078;47.822;9.402;2023-05-10T15:14:20;12.20;99.90
15959;DHT22;8078;47.822;9.402;2023-05-10T15:16:45;12.10;99.90
15959;DHT22;8078;47.822;9.402;2023-05-10T15:19:11;12.20;99.90
15959;DHT22;8078;47.822;9.402;2023-05-10T15:21:36;12.00;99.90
15959;DHT22;8078;47.822;9.402;2023-05-10T15:24:08;12.00;99.90
15959;DHT22;8078;47.822;9.402;2023-05-10T15:26:34;12.00;99.90
15959;DHT22;8078;47.822;9.402;2023-05-10T15:28:59;11.90;99.90
15959;DHT22;8078;47.822;9.402;2023-05-10T15:31:25;11.80;99.90
15959;DHT22;8078;47.822;9.402;2023-05-10T15:33:50;11.80;99.90
15959;DHT22;8078;47.822;9.402;2023-05-10T15:36:16;11.70;99.90
15959;DHT22;8078;47.822;9.402;2023-05-10T15:38:43;11.70;99.90
15959;DHT22;8078;47.822;9.402;2023-05-10T15:41:09;11.70;99.90
15959;DHT22;8078;47.822;9.402;2023-05-10T15:43:34;11.70;99.90
15959;DHT22;8078;47.822;9.402;2023-05-10T15:46:00;11.70;99.90
15959;DHT22;8078;47.822;9.402;2023-05-10T15:48:26;11.70;99.90
15959;DHT22;8078;47.822;9.402;2023-05-10T15:50:52;11.50;99.90
15959;DHT22;8078;47.822;9.402;2023-05-10T15:53:18;11.50;99.90
15959;DHT22;8078;47.822;9.402;2023-05-10T15:55:43;11.40;99.90
15959;DHT22;8078;47.822;9.402;2023-05-10T15:58:09;11.40;99.90
15959;DHT22;8078;47.822;9.402;2023-05-10T16:00:34;11.40;99.90
15959;DHT22;8078;47.822;9.402;2023-05-10T16:03:00;11.40;99.90
15959;DHT22;8078;47.822;9.402;2023-05-10T16:05:25;11.30;99.90
15959;DHT22;8078;47.822;9.402;2023-05-10T16:07:54;11.30;99.90
15959;DHT22;8078;47.822;9.402;2023-05-10T16:10:19;11.30;99.90
15959;DHT22;8078;47.822;9.402;2023-05-10T16:12:45;11.30;99.90
15959;DHT22;8078;47.822;9.402;2023-05-10T16:15:11;11.30;99.90
15959;DHT22;8078;47.822;9.402;2023-05-10T16:17:37;11.20;99.90
15959;DHT22;8078;47.822;9.402;2023-05-10T16:20:02;11.30;99.90
15959;DHT22;8078;47.822;9.402;2023-05-10T16:22:28;11.20;99.90